createdAt,value
2022-10-31T00:01:29.158Z,48.15
2022-10-31T00:03:56.830Z,47.30
2022-10-31T00:06:24.431Z,50.03
2022-10-31T00:08:57.250Z,42.33
2022-10-31T00:11:25.092Z,46.15
2022-10-31T00:13:52.680Z,44.65
2022-10-31T00:16:23.006Z,44.00
2022-10-31T00:18:56.118Z,44.40
2022-10-31T00:21:23.719Z,45.95
2022-10-31T00:23:51.741Z,46.70
2022-10-31T00:26:19.501Z,39.92
2022-10-31T00:28:47.077Z,41.55
2022-10-31T00:31:14.795Z,35.13
2022-10-31T00:33:42.358Z,33.88
2022-10-31T00:36:13.480Z,29.40
2022-10-31T00:38:42.334Z,27.00
2022-10-31T00:41:10.679Z,26.40
2022-10-31T00:43:40.536Z,25.65
2022-10-31T00:46:08.186Z,30.45
2022-10-31T00:48:35.515Z,26.52
2022-10-31T00:51:02.989Z,27.37
2022-10-31T00:53:30.574Z,26.98
2022-10-31T00:55:57.890Z,27.62
2022-10-31T00:58:25.354Z,28.52
2022-10-31T01:00:56.391Z,24.05
2022-10-31T01:03:25.961Z,24.90
2022-10-31T01:06:07.249Z,28.50
2022-10-31T01:08:35.887Z,24.35
2022-10-31T01:11:08.869Z,24.52
2022-10-31T01:13:36.197Z,24.40
2022-10-31T01:16:05.826Z,27.45
2022-10-31T01:18:34.185Z,24.95
2022-10-31T01:21:08.991Z,28.85
2022-10-31T01:23:37.261Z,24.90
2022-10-31T01:26:09.082Z,27.15
2022-10-31T01:28:38.560Z,31.27
2022-10-31T01:31:08.314Z,30.25
2022-10-31T01:33:36.557Z,33.70
2022-10-31T01:36:15.589Z,32.15
2022-10-31T01:38:43.192Z,28.92
2022-10-31T01:41:14.258Z,30.70
2022-10-31T01:43:51.378Z,33.78
2022-10-31T01:46:35.413Z,33.25
2022-10-31T01:49:05.630Z,35.33
2022-10-31T01:51:38.272Z,35.22
2022-10-31T01:54:07.643Z,38.42
2022-10-31T01:56:38.806Z,36.47
2022-10-31T01:59:08.600Z,36.33
2022-10-31T02:01:36.653Z,34.00
2022-10-31T02:04:05.041Z,31.77
2022-10-31T02:06:48.556Z,32.65
2022-10-31T02:09:16.714Z,35.15
2022-10-31T02:11:45.169Z,36.15
2022-10-31T02:14:13.933Z,34.53
2022-10-31T02:16:41.495Z,34.80
2022-10-31T02:19:10.120Z,34.95
2022-10-31T02:21:50.508Z,34.45
2022-10-31T02:24:33.307Z,31.45
2022-10-31T02:27:26.289Z,29.27
2022-10-31T02:30:12.722Z,27.90
2022-10-31T02:32:54.315Z,25.58
2022-10-31T02:35:33.610Z,24.83
2022-10-31T02:38:28.630Z,27.87
2022-10-31T02:41:23.600Z,26.05
2022-10-31T02:44:18.301Z,24.63
2022-10-31T02:47:12.009Z,27.50
2022-10-31T02:49:46.273Z,26.00
2022-10-31T02:52:16.037Z,26.58
2022-10-31T02:54:47.654Z,25.88
2022-10-31T02:57:17.557Z,23.05
2022-10-31T02:59:50.204Z,23.12
2022-10-31T03:02:36.237Z,24.87
2022-10-31T03:05:20.165Z,26.50
2022-10-31T03:08:11.882Z,23.23
2022-10-31T03:10:49.907Z,25.45
2022-10-31T03:13:42.243Z,18.95
2022-10-31T03:18:57.191Z,18.30
2022-10-31T03:21:28.659Z,19.42
2022-10-31T03:23:57.615Z,22.15
2022-10-31T03:26:26.060Z,19.55
2022-10-31T03:28:59.445Z,19.42
2022-10-31T03:31:31.323Z,20.60
2022-10-31T03:34:01.067Z,22.48
2022-10-31T03:36:35.671Z,19.67
2022-10-31T03:39:05.827Z,18.25
2022-10-31T03:41:38.667Z,20.75
2022-10-31T03:44:11.967Z,23.05
2022-10-31T03:46:40.615Z,21.87
2022-10-31T03:49:08.005Z,19.33
2022-10-31T03:52:07.980Z,21.05
2022-10-31T03:54:54.351Z,18.60
2022-10-31T03:57:32.557Z,20.88
2022-10-31T04:00:09.720Z,19.65
2022-10-31T04:03:06.085Z,21.33
2022-10-31T04:05:34.595Z,19.02
2022-10-31T04:08:05.205Z,17.75
2022-10-31T04:10:33.676Z,24.08
2022-10-31T04:13:06.200Z,20.15
2022-10-31T04:15:34.510Z,20.40
2022-10-31T04:18:05.037Z,19.05
2022-10-31T04:20:37.489Z,17.17
2022-10-31T04:23:09.886Z,21.05
2022-10-31T04:25:39.682Z,17.85
2022-10-31T04:28:07.581Z,16.50
2022-10-31T04:30:35.037Z,17.10
2022-10-31T04:33:02.650Z,19.02
2022-10-31T04:35:30.990Z,17.77
2022-10-31T04:37:58.388Z,19.95
2022-10-31T04:40:25.766Z,18.65
2022-10-31T04:42:55.842Z,17.20
2022-10-31T04:45:23.185Z,18.75
2022-10-31T04:47:51.243Z,16.62
2022-10-31T04:50:19.067Z,18.48
2022-10-31T04:52:46.964Z,17.37
2022-10-31T04:55:15.594Z,18.55
2022-10-31T04:57:47.678Z,21.27
2022-10-31T05:00:18.008Z,16.95
2022-10-31T05:02:46.804Z,18.92
2022-10-31T05:05:15.524Z,19.40
2022-10-31T05:07:44.552Z,19.48
2022-10-31T05:10:15.136Z,18.37
2022-10-31T05:12:50.704Z,22.13
2022-10-31T05:15:23.044Z,22.55
2022-10-31T05:17:54.402Z,21.45
2022-10-31T05:20:25.563Z,24.50
2022-10-31T05:22:55.815Z,21.27
2022-10-31T05:25:25.302Z,25.60
2022-10-31T05:27:53.418Z,21.73
2022-10-31T05:30:23.708Z,24.17
2022-10-31T05:32:51.796Z,21.52
2022-10-31T05:35:32.518Z,26.10
2022-10-31T05:38:00.963Z,25.23
2022-10-31T05:40:29.098Z,26.33
2022-10-31T05:42:57.978Z,27.70
2022-10-31T05:45:26.581Z,23.77
2022-10-31T05:47:59.889Z,26.92
2022-10-31T05:50:30.565Z,27.90
2022-10-31T05:53:03.700Z,26.20
2022-10-31T05:55:32.360Z,28.00
2022-10-31T05:58:00.290Z,28.40
2022-10-31T06:00:28.963Z,29.25
2022-10-31T06:03:01.893Z,33.35
2022-10-31T06:05:30.937Z,28.92
2022-10-31T06:07:59.270Z,33.35
2022-10-31T06:10:27.749Z,31.95
2022-10-31T06:12:56.095Z,33.33
2022-10-31T06:15:24.709Z,32.55
2022-10-31T06:18:04.592Z,29.83
2022-10-31T06:20:34.320Z,32.40
2022-10-31T06:23:03.015Z,30.92
2022-10-31T06:25:31.858Z,29.73
2022-10-31T06:27:59.539Z,30.10
2022-10-31T06:30:28.062Z,31.50
2022-10-31T06:33:03.099Z,32.95
2022-10-31T06:35:31.155Z,32.03
2022-10-31T06:38:00.077Z,32.08
2022-10-31T06:40:27.987Z,30.98
2022-10-31T06:43:01.102Z,30.35
2022-10-31T06:45:29.906Z,31.73
2022-10-31T06:48:17.736Z,30.15
2022-10-31T06:50:47.493Z,29.90
2022-10-31T06:53:15.396Z,31.95
2022-10-31T06:55:43.212Z,32.45
2022-10-31T06:58:11.597Z,30.92
2022-10-31T07:00:39.932Z,33.08
2022-10-31T07:03:12.332Z,29.00
2022-10-31T07:05:40.444Z,31.17
2022-10-31T07:08:10.050Z,31.08
2022-10-31T07:10:40.409Z,30.42
2022-10-31T07:13:15.493Z,27.98
2022-10-31T07:15:44.491Z,30.60
2022-10-31T07:18:13.060Z,32.25
2022-10-31T07:20:40.700Z,36.88
2022-10-31T07:23:10.081Z,32.67
2022-10-31T07:25:39.322Z,35.70
2022-10-31T07:28:07.467Z,33.65
2022-10-31T07:30:34.802Z,34.97
2022-10-31T07:33:02.706Z,36.53
2022-10-31T07:35:32.902Z,33.47
2022-10-31T07:38:08.096Z,36.00
2022-10-31T07:40:35.747Z,36.05
2022-10-31T07:43:03.344Z,35.58
2022-10-31T07:45:31.230Z,34.05
2022-10-31T07:48:03.587Z,33.22
2022-10-31T07:50:40.150Z,28.40
2022-10-31T07:53:12.151Z,32.72
2022-10-31T07:55:41.292Z,30.30
2022-10-31T07:58:16.416Z,35.05
2022-10-31T08:00:45.734Z,37.15
2022-10-31T08:03:15.879Z,31.52
2022-10-31T08:05:48.162Z,37.78
2022-10-31T08:08:17.596Z,32.97
2022-10-31T08:10:45.234Z,32.22
2022-10-31T08:13:14.222Z,30.52
2022-10-31T08:15:43.064Z,31.12
2022-10-31T08:18:13.722Z,20.90
2022-10-31T08:20:41.862Z,34.15
2022-10-31T08:23:10.700Z,33.22
2022-10-31T08:25:39.245Z,32.78
2022-10-31T08:28:08.056Z,31.08
2022-10-31T08:30:38.203Z,35.10
2022-10-31T08:33:14.496Z,31.95
2022-10-31T08:35:49.384Z,34.47
2022-10-31T08:38:19.191Z,32.50
2022-10-31T08:40:49.437Z,31.73
2022-10-31T08:43:17.810Z,37.28
2022-10-31T08:45:46.078Z,34.17
2022-10-31T08:48:17.411Z,34.72
2022-10-31T08:50:45.949Z,34.03
2022-10-31T08:53:16.231Z,34.15
2022-10-31T08:55:45.294Z,31.00
2022-10-31T08:58:18.007Z,33.55
2022-10-31T09:00:48.374Z,29.25
2022-10-31T09:03:24.112Z,29.60
2022-10-31T09:05:52.226Z,32.80
2022-10-31T09:08:19.972Z,32.08
2022-10-31T09:10:47.500Z,35.20
2022-10-31T09:13:20.312Z,35.17
2022-10-31T09:15:50.362Z,33.40
2022-10-31T09:18:21.931Z,31.00
2022-10-31T09:20:50.422Z,32.47
2022-10-31T09:23:20.209Z,33.22
2022-10-31T09:25:50.756Z,31.42
2022-10-31T09:28:24.238Z,34.45
2022-10-31T09:30:53.028Z,32.60
2022-10-31T09:33:21.858Z,31.02
2022-10-31T09:35:50.826Z,27.08
2022-10-31T09:38:21.935Z,32.00
2022-10-31T09:40:57.095Z,33.38
2022-10-31T09:43:30.344Z,30.77
2022-10-31T09:46:05.270Z,36.83
2022-10-31T09:49:03.919Z,32.88
2022-10-31T09:51:52.969Z,34.60
2022-10-31T09:54:41.367Z,31.73
2022-10-31T09:57:14.094Z,30.08
2022-10-31T09:59:43.213Z,27.02
2022-10-31T10:02:15.201Z,27.85
2022-10-31T10:05:00.477Z,31.50
2022-10-31T10:07:33.442Z,32.45
2022-10-31T10:13:09.667Z,35.60
2022-10-31T10:15:40.604Z,29.87
2022-10-31T10:18:15.401Z,27.95
2022-10-31T10:21:08.068Z,26.40
2022-10-31T10:23:43.958Z,26.25
2022-10-31T10:26:18.775Z,26.55
2022-10-31T10:29:03.452Z,30.73
2022-10-31T10:31:38.291Z,31.08
2022-10-31T10:34:08.822Z,25.88
2022-10-31T10:36:44.049Z,26.80
2022-10-31T10:39:21.749Z,23.67
2022-10-31T10:42:09.534Z,28.30
2022-10-31T10:45:01.720Z,29.15
2022-10-31T10:47:41.596Z,25.98
2022-10-31T10:50:19.630Z,29.87
2022-10-31T10:53:07.773Z,27.15
2022-10-31T10:55:40.341Z,31.40
2022-10-31T10:58:09.060Z,30.02
2022-10-31T11:00:40.076Z,31.02
2022-10-31T11:03:07.959Z,29.80
2022-10-31T11:05:40.747Z,28.42
2022-10-31T11:08:08.942Z,29.12
2022-10-31T11:10:36.618Z,29.35
2022-10-31T11:13:21.656Z,27.42
2022-10-31T11:16:40.404Z,24.35
2022-10-31T11:19:09.943Z,24.50
2022-10-31T11:21:37.630Z,27.67
2022-10-31T11:24:11.029Z,26.30
2022-10-31T11:26:40.173Z,23.98
2022-10-31T11:29:25.894Z,25.10
2022-10-31T11:31:56.167Z,26.00
2022-10-31T11:34:30.258Z,25.12
2022-10-31T11:37:04.436Z,20.30
2022-10-31T11:39:32.215Z,22.73
2022-10-31T11:42:07.703Z,21.60
2022-10-31T11:44:36.342Z,21.20
2022-10-31T11:47:05.806Z,23.17
2022-10-31T11:49:37.032Z,21.08
2022-10-31T11:52:09.770Z,23.25
2022-10-31T11:54:45.763Z,20.88
2022-10-31T11:57:43.596Z,23.17
2022-10-31T12:00:41.759Z,22.85
2022-10-31T12:03:34.375Z,21.75
2022-10-31T12:06:06.431Z,18.75
2022-10-31T12:11:19.874Z,22.10
2022-10-31T12:14:16.362Z,19.52
2022-10-31T12:17:01.423Z,20.08
2022-10-31T12:19:57.113Z,21.30
2022-10-31T12:22:27.873Z,20.55
2022-10-31T12:25:16.654Z,23.60
2022-10-31T12:27:53.054Z,26.67
2022-10-31T12:30:22.688Z,24.23
2022-10-31T12:33:14.810Z,16.92
2022-10-31T12:35:47.571Z,17.37
2022-10-31T12:38:33.977Z,16.85
2022-10-31T12:41:37.122Z,18.10
2022-10-31T12:46:59.443Z,16.85
2022-10-31T12:49:44.791Z,17.40
2022-10-31T12:52:19.764Z,17.20
2022-10-31T12:55:15.381Z,14.95
2022-10-31T12:57:53.487Z,18.37
2022-10-31T13:00:22.587Z,17.62
2022-10-31T13:03:19.639Z,17.37
2022-10-31T13:05:53.150Z,17.12
2022-10-31T13:08:29.759Z,20.37
2022-10-31T13:11:03.919Z,18.27
2022-10-31T13:13:52.814Z,21.00
2022-10-31T13:16:29.820Z,25.55
2022-10-31T13:19:06.939Z,65.43
2022-10-31T13:21:42.620Z,39.75
2022-10-31T13:24:17.802Z,22.83
2022-10-31T13:26:49.202Z,26.27
2022-10-31T13:29:31.486Z,28.90
2022-10-31T13:32:07.416Z,22.62
2022-10-31T13:34:40.980Z,21.65
2022-10-31T13:37:35.775Z,22.17
2022-10-31T13:40:34.166Z,27.35
2022-10-31T13:43:10.733Z,25.70
2022-10-31T13:45:49.038Z,24.48
2022-10-31T13:48:16.202Z,26.80
2022-10-31T13:50:56.027Z,25.88
2022-10-31T13:53:24.095Z,23.35
2022-10-31T13:56:17.334Z,22.33
2022-10-31T13:59:10.441Z,29.20
2022-10-31T14:01:47.268Z,29.02
2022-10-31T14:04:25.283Z,27.00
2022-10-31T14:07:11.227Z,30.10
2022-10-31T14:09:40.186Z,23.20
2022-10-31T14:12:22.300Z,21.17
2022-10-31T14:17:21.398Z,22.77
2022-10-31T14:20:36.041Z,21.58
2022-10-31T14:23:31.358Z,20.42
2022-10-31T14:26:32.430Z,25.58
2022-10-31T14:29:22.553Z,24.77
2022-10-31T14:31:57.244Z,25.62
2022-10-31T14:34:37.295Z,25.12
2022-10-31T14:37:25.788Z,26.50
2022-10-31T14:40:18.487Z,23.00
2022-10-31T14:43:22.734Z,29.63
2022-10-31T14:46:12.701Z,25.12
2022-10-31T14:48:55.171Z,26.65
2022-10-31T14:51:24.549Z,25.25
2022-10-31T14:53:56.493Z,25.27
2022-10-31T14:58:56.522Z,26.45
2022-10-31T15:01:31.699Z,24.35
2022-10-31T15:04:24.078Z,26.67
2022-10-31T15:06:59.297Z,23.98
2022-10-31T15:09:32.302Z,27.75
2022-10-31T15:12:01.217Z,23.98
2022-10-31T15:14:31.075Z,27.33
2022-10-31T15:16:59.561Z,27.83
2022-10-31T15:19:28.617Z,24.12
2022-10-31T15:21:57.160Z,30.48
2022-10-31T15:24:35.074Z,29.42
2022-10-31T15:27:05.113Z,30.90
2022-10-31T15:29:32.629Z,28.75
2022-10-31T15:32:21.942Z,28.25
2022-10-31T15:34:51.877Z,22.98
2022-10-31T15:37:21.393Z,27.27
2022-10-31T15:39:50.394Z,25.37
2022-10-31T15:42:47.209Z,23.00
2022-10-31T15:45:14.750Z,26.77
2022-10-31T15:48:17.957Z,26.83
2022-10-31T15:50:52.704Z,25.37
2022-10-31T15:53:27.383Z,26.05
2022-10-31T15:56:00.016Z,27.62
2022-10-31T15:58:29.266Z,27.60
2022-10-31T16:01:05.495Z,27.55
2022-10-31T16:03:34.707Z,28.17
2022-10-31T16:06:04.892Z,22.85
2022-10-31T16:08:32.097Z,24.83
2022-10-31T16:11:04.452Z,29.40
2022-10-31T16:13:34.305Z,26.52
2022-10-31T16:16:32.998Z,26.90
2022-10-31T16:18:53.314Z,36.53
2022-10-31T16:21:26.624Z,29.77
2022-10-31T16:23:58.428Z,31.70
2022-10-31T16:29:03.338Z,30.70
2022-10-31T16:31:40.615Z,25.92
2022-10-31T16:34:26.636Z,25.88
2022-10-31T16:36:54.843Z,27.75
2022-10-31T16:39:22.201Z,27.20
2022-10-31T16:41:51.907Z,26.83
2022-10-31T16:44:24.319Z,28.27
2022-10-31T16:47:14.653Z,26.37
2022-10-31T16:49:43.652Z,25.90
2022-10-31T16:52:11.000Z,30.58
2022-10-31T16:54:38.375Z,34.78
2022-10-31T16:57:06.899Z,29.40
2022-10-31T16:59:34.598Z,27.20
2022-10-31T17:02:04.169Z,26.02
2022-10-31T17:04:31.954Z,27.42
2022-10-31T17:06:59.351Z,26.73
2022-10-31T17:09:26.879Z,30.77
2022-10-31T17:11:54.732Z,30.12
2022-10-31T17:14:22.177Z,30.27
2022-10-31T17:16:49.473Z,29.65
2022-10-31T17:19:17.108Z,33.38
2022-10-31T17:21:44.488Z,33.03
2022-10-31T17:24:15.575Z,30.20
2022-10-31T17:26:43.256Z,34.40
2022-10-31T17:29:10.629Z,30.45
2022-10-31T17:31:39.237Z,33.70
2022-10-31T17:34:07.247Z,31.95
2022-10-31T17:36:35.112Z,28.00
2022-10-31T17:39:03.472Z,28.12
2022-10-31T17:41:31.191Z,29.50
2022-10-31T17:43:59.542Z,35.00
2022-10-31T17:46:28.332Z,30.10
2022-10-31T17:48:55.912Z,35.90
2022-10-31T17:51:23.464Z,31.48
2022-10-31T17:53:51.116Z,33.08
2022-10-31T17:56:19.685Z,29.92
2022-10-31T17:58:46.998Z,30.80
2022-10-31T18:01:16.385Z,28.33
2022-10-31T18:03:44.446Z,29.87
2022-10-31T18:06:14.386Z,32.78
2022-10-31T18:08:41.806Z,32.70
2022-10-31T18:11:14.738Z,33.75
2022-10-31T18:13:42.351Z,34.50
2022-10-31T18:16:12.010Z,36.13
2022-10-31T18:18:39.355Z,31.08
2022-10-31T18:21:06.763Z,35.15
2022-10-31T18:23:34.375Z,31.12
2022-10-31T18:26:01.958Z,36.33
2022-10-31T18:28:29.331Z,33.15
2022-10-31T18:31:00.444Z,33.90
2022-10-31T18:33:28.134Z,35.85
2022-10-31T18:35:55.776Z,41.63
2022-10-31T18:38:23.361Z,42.00
2022-10-31T18:40:51.489Z,41.05
2022-10-31T18:43:18.806Z,46.45
2022-10-31T18:45:48.653Z,39.17
2022-10-31T18:48:17.686Z,42.60
2022-10-31T18:50:45.721Z,45.28
2022-10-31T18:53:13.340Z,42.05
2022-10-31T18:55:45.358Z,41.60
2022-10-31T18:58:17.050Z,50.78
2022-10-31T19:00:45.793Z,42.38
2022-10-31T19:03:14.371Z,49.50
2022-10-31T19:05:41.971Z,45.88
2022-10-31T19:08:09.301Z,46.33
2022-10-31T19:10:38.283Z,48.45
2022-10-31T19:13:06.521Z,42.97
2022-10-31T19:15:34.671Z,45.85
2022-10-31T19:18:02.252Z,42.47
2022-10-31T19:20:30.085Z,42.70
2022-10-31T19:22:57.487Z,42.65
2022-10-31T19:25:24.906Z,39.45
2022-10-31T19:27:52.783Z,40.30
2022-10-31T19:30:21.278Z,40.20
2022-10-31T19:32:48.588Z,38.70
2022-10-31T19:35:16.659Z,41.05
2022-10-31T19:37:43.982Z,37.60
2022-10-31T19:40:12.323Z,37.92
2022-10-31T19:42:39.880Z,39.10
2022-10-31T19:45:07.505Z,31.62
2022-10-31T19:47:34.842Z,33.97
2022-10-31T19:50:04.903Z,26.25
2022-10-31T19:52:35.794Z,28.60
2022-10-31T19:55:03.570Z,21.75
2022-10-31T19:58:00.244Z,24.92
2022-10-31T20:00:21.196Z,24.40
2022-10-31T20:02:48.763Z,24.23
2022-10-31T20:05:16.087Z,26.80
2022-10-31T20:07:43.391Z,25.98
2022-10-31T20:10:10.998Z,23.45
2022-10-31T20:12:38.468Z,25.65
2022-10-31T20:15:06.285Z,28.80
2022-10-31T20:17:33.879Z,27.40
2022-10-31T20:20:02.968Z,27.67
2022-10-31T20:22:30.340Z,27.23
2022-10-31T20:24:57.916Z,25.17
2022-10-31T20:27:25.229Z,28.17
2022-10-31T20:29:52.541Z,24.85
2022-10-31T20:32:20.500Z,26.70
2022-10-31T20:37:20.322Z,25.00
2022-10-31T20:39:48.742Z,29.10
2022-10-31T20:42:17.565Z,28.25
2022-10-31T20:44:45.163Z,31.42
2022-10-31T20:47:13.198Z,30.30
2022-10-31T20:49:40.530Z,31.95
2022-10-31T20:52:08.118Z,33.20
2022-10-31T20:54:35.425Z,27.92
2022-10-31T20:57:02.737Z,30.75
2022-10-31T20:59:30.377Z,35.53
2022-10-31T21:01:57.833Z,27.80
2022-10-31T21:04:25.220Z,34.08
2022-10-31T21:06:52.840Z,32.75
2022-10-31T21:09:20.180Z,35.05
2022-10-31T21:11:47.516Z,35.42
2022-10-31T21:14:15.106Z,33.08
2022-10-31T21:16:42.432Z,34.28
2022-10-31T21:19:09.830Z,30.23
2022-10-31T21:21:37.428Z,39.40
2022-10-31T21:24:07.166Z,36.20
2022-10-31T21:26:37.825Z,37.10
2022-10-31T21:29:06.554Z,35.33
2022-10-31T21:31:35.732Z,40.45
2022-10-31T21:34:03.452Z,38.40
2022-10-31T21:36:31.083Z,40.38
2022-10-31T21:38:58.411Z,39.53
2022-10-31T21:41:26.400Z,41.28
2022-10-31T21:43:54.604Z,36.13
2022-10-31T21:46:30.171Z,42.58
2022-10-31T21:48:58.600Z,36.97
2022-10-31T21:51:28.074Z,33.83
2022-10-31T21:54:14.887Z,38.47
2022-10-31T21:56:43.044Z,34.20
2022-10-31T21:59:10.661Z,36.40
2022-10-31T22:01:38.145Z,36.03
2022-10-31T22:04:06.443Z,39.72
2022-10-31T22:06:34.481Z,37.22
2022-10-31T22:09:04.655Z,34.58
2022-10-31T22:11:32.567Z,36.58
2022-10-31T22:14:00.894Z,34.00
2022-10-31T22:16:29.602Z,39.75
2022-10-31T22:18:59.481Z,39.92
2022-10-31T22:21:28.136Z,40.85
2022-10-31T22:24:00.474Z,35.83
2022-10-31T22:26:31.124Z,38.60
2022-10-31T22:29:02.083Z,35.97
2022-10-31T22:31:30.779Z,33.90
2022-10-31T22:33:58.459Z,35.15
2022-10-31T22:36:28.194Z,40.53
2022-10-31T22:38:55.971Z,35.25
2022-10-31T22:41:29.226Z,36.67
2022-10-31T22:43:57.136Z,34.97
2022-10-31T22:46:26.970Z,33.88
2022-10-31T22:48:56.389Z,32.47
2022-10-31T22:51:29.291Z,34.13
2022-10-31T22:53:57.061Z,35.05
2022-10-31T22:56:26.716Z,34.83
2022-10-31T22:58:54.140Z,27.13
2022-10-31T23:01:25.385Z,28.55
2022-10-31T23:03:52.823Z,28.02
2022-10-31T23:06:22.065Z,28.85
2022-10-31T23:08:50.181Z,28.52
2022-10-31T23:11:24.561Z,27.52
2022-10-31T23:14:10.710Z,26.60
2022-10-31T23:16:48.690Z,26.05
2022-10-31T23:19:23.227Z,28.58
2022-10-31T23:22:02.137Z,26.60
2022-10-31T23:24:46.556Z,25.77
2022-10-31T23:27:19.382Z,25.42
2022-10-31T23:29:50.650Z,25.25
2022-10-31T23:32:23.463Z,25.30
2022-10-31T23:34:53.368Z,29.23
2022-10-31T23:37:22.529Z,26.98
2022-10-31T23:39:50.096Z,23.90
2022-10-31T23:42:18.790Z,32.30
2022-10-31T23:44:46.431Z,27.80
2022-10-31T23:47:13.846Z,25.12
2022-10-31T23:49:41.484Z,23.20
2022-10-31T23:52:09.392Z,23.02
2022-10-31T23:54:36.716Z,22.25
2022-10-31T23:57:04.933Z,23.27
2022-10-31T23:59:32.835Z,25.10
